sensor_id;sensor_type;location;lat;lon;timestamp;pressure;altitude;pressure_sealevel;temperature;humidity
40285;BME280;25997;50.214;19.354;2023-03-11T00:02:44;95239.81;;;7.95;55.19
40285;BME280;25997;50.214;19.354;2023-03-11T00:05:47;95232.03;;;7.87;55.51
40285;BME280;25997;50.214;19.354;2023-03-11T00:08:50;95240.78;;;7.83;55.54
40285;BME280;25997;50.214;19.354;2023-03-11T00:11:54;95223.25;;;7.94;55.19
40285;BME280;25997;50.214;19.354;2023-03-11T00:14:57;95220.75;;;7.87;55.47
40285;BME280;25997;50.214;19.354;2023-03-11T00:18:00;95215.41;;;7.96;55.10
40285;BME280;25997;50.214;19.354;2023-03-11T00:21:02;95221.44;;;8.02;55.04
40285;BME280;25997;50.214;19.354;2023-03-11T00:24:06;95216.31;;;7.92;55.21
40285;BME280;25997;50.214;19.354;2023-03-11T00:27:10;95222.34;;;8.00;54.97
40285;BME280;25997;50.214;19.354;2023-03-11T00:30:14;95223.09;;;8.09;54.56
40285;BME280;25997;50.214;19.354;2023-03-11T00:33:17;95222.06;;;8.25;54.12
40285;BME280;25997;50.214;19.354;2023-03-11T00:36:22;95220.25;;;8.35;53.81
40285;BME280;25997;50.214;19.354;2023-03-11T00:39:25;95226.44;;;8.26;54.03
40285;BME280;25997;50.214;19.354;2023-03-11T00:42:29;95220.44;;;8.17;54.15
40285;BME280;25997;50.214;19.354;2023-03-11T00:45:32;95211.66;;;8.24;54.10
40285;BME280;25997;50.214;19.354;2023-03-11T00:48:34;95202.97;;;8.19;54.09
40285;BME280;25997;50.214;19.354;2023-03-11T00:51:37;95212.56;;;8.20;54.00
40285;BME280;25997;50.214;19.354;2023-03-11T00:54:40;95198.47;;;8.33;53.54
40285;BME280;25997;50.214;19.354;2023-03-11T00:57:44;95209.09;;;8.19;53.70
40285;BME280;25997;50.214;19.354;2023-03-11T01:00:47;95208.03;;;8.35;53.48
40285;BME280;25997;50.214;19.354;2023-03-11T01:03:50;95201.25;;;8.19;53.51
40285;BME280;25997;50.214;19.354;2023-03-11T01:06:52;95201.19;;;8.22;53.46
40285;BME280;25997;50.214;19.354;2023-03-11T01:09:55;95210.03;;;8.09;53.77
40285;BME280;25997;50.214;19.354;2023-03-11T01:12:59;95193.53;;;8.09;53.28
40285;BME280;25997;50.214;19.354;2023-03-11T01:16:02;95189.28;;;7.96;53.22
40285;BME280;25997;50.214;19.354;2023-03-11T01:19:04;95195.22;;;8.11;52.44
40285;BME280;25997;50.214;19.354;2023-03-11T01:22:07;95202.03;;;8.26;51.75
40285;BME280;25997;50.214;19.354;2023-03-11T01:25:11;95214.34;;;8.15;51.49
40285;BME280;25997;50.214;19.354;2023-03-11T01:28:16;95208.31;;;8.10;51.10
40285;BME280;25997;50.214;19.354;2023-03-11T01:31:19;95209.91;;;8.24;50.64
40285;BME280;25997;50.214;19.354;2023-03-11T01:34:22;95209.38;;;7.89;50.33
40285;BME280;25997;50.214;19.354;2023-03-11T01:37:24;95232.88;;;7.91;50.23
40285;BME280;25997;50.214;19.354;2023-03-11T01:40:29;95212.78;;;7.99;50.12
40285;BME280;25997;50.214;19.354;2023-03-11T01:43:57;95209.22;;;8.06;49.14
40285;BME280;25997;50.214;19.354;2023-03-11T01:47:33;95214.25;;;8.22;48.68
40285;BME280;25997;50.214;19.354;2023-03-11T01:50:39;95203.09;;;8.08;49.22
40285;BME280;25997;50.214;19.354;2023-03-11T01:53:42;95198.69;;;8.12;48.96
40285;BME280;25997;50.214;19.354;2023-03-11T01:56:45;95195.25;;;8.08;48.94
40285;BME280;25997;50.214;19.354;2023-03-11T01:59:52;95192.00;;;7.85;49.31
40285;BME280;25997;50.214;19.354;2023-03-11T02:02:59;95196.38;;;7.83;49.94
40285;BME280;25997;50.214;19.354;2023-03-11T02:06:06;95205.00;;;7.91;49.58
40285;BME280;25997;50.214;19.354;2023-03-11T02:09:11;95205.06;;;7.85;50.27
40285;BME280;25997;50.214;19.354;2023-03-11T02:12:14;95212.28;;;7.51;51.86
40285;BME280;25997;50.214;19.354;2023-03-11T02:15:19;95210.63;;;7.44;52.25
40285;BME280;25997;50.214;19.354;2023-03-11T02:18:22;95197.59;;;7.41;52.29
40285;BME280;25997;50.214;19.354;2023-03-11T02:21:26;95214.06;;;7.51;51.73
40285;BME280;25997;50.214;19.354;2023-03-11T02:24:41;95204.66;;;7.29;52.37
40285;BME280;25997;50.214;19.354;2023-03-11T02:27:48;95207.34;;;7.15;52.33
40285;BME280;25997;50.214;19.354;2023-03-11T02:30:55;95216.09;;;7.08;52.29
40285;BME280;25997;50.214;19.354;2023-03-11T02:34:00;95217.81;;;7.12;52.21
40285;BME280;25997;50.214;19.354;2023-03-11T02:37:05;95222.22;;;7.04;51.98
40285;BME280;25997;50.214;19.354;2023-03-11T02:40:32;95203.19;;;6.88;52.00
40285;BME280;25997;50.214;19.354;2023-03-11T02:43:38;95222.34;;;6.81;51.82
40285;BME280;25997;50.214;19.354;2023-03-11T02:46:44;95228.41;;;6.82;51.24
40285;BME280;25997;50.214;19.354;2023-03-11T02:49:48;95225.66;;;7.10;50.99
40285;BME280;25997;50.214;19.354;2023-03-11T02:52:51;95232.72;;;6.87;51.13
40285;BME280;25997;50.214;19.354;2023-03-11T02:55:56;95223.00;;;7.12;50.71
40285;BME280;25997;50.214;19.354;2023-03-11T02:59:00;95213.47;;;7.09;50.57
40285;BME280;25997;50.214;19.354;2023-03-11T03:02:04;95229.13;;;7.05;50.77
40285;BME280;25997;50.214;19.354;2023-03-11T03:05:07;95225.75;;;6.89;50.93
40285;BME280;25997;50.214;19.354;2023-03-11T03:08:10;95234.56;;;6.69;51.04
40285;BME280;25997;50.214;19.354;2023-03-11T03:11:13;95229.22;;;6.91;50.91
40285;BME280;25997;50.214;19.354;2023-03-11T03:14:17;95222.25;;;6.99;50.66
40285;BME280;25997;50.214;19.354;2023-03-11T03:17:19;95245.78;;;6.83;50.66
40285;BME280;25997;50.214;19.354;2023-03-11T03:20:22;95213.75;;;6.60;51.29
40285;BME280;25997;50.214;19.354;2023-03-11T03:23:30;95219.78;;;6.65;51.29
40285;BME280;25997;50.214;19.354;2023-03-11T03:26:35;95218.88;;;6.75;50.97
40285;BME280;25997;50.214;19.354;2023-03-11T03:29:42;95223.31;;;6.59;51.34
40285;BME280;25997;50.214;19.354;2023-03-11T03:32:44;95218.09;;;6.59;51.35
40285;BME280;25997;50.214;19.354;2023-03-11T03:35:50;95219.94;;;6.34;51.86
40285;BME280;25997;50.214;19.354;2023-03-11T03:38:56;95208.66;;;6.20;52.40
40285;BME280;25997;50.214;19.354;2023-03-11T03:42:04;95209.53;;;6.33;51.96
40285;BME280;25997;50.214;19.354;2023-03-11T03:45:11;95234.69;;;6.25;52.36
40285;BME280;25997;50.214;19.354;2023-03-11T03:48:14;95244.28;;;6.08;53.05
40285;BME280;25997;50.214;19.354;2023-03-11T03:51:19;95223.44;;;6.05;53.25
40285;BME280;25997;50.214;19.354;2023-03-11T03:54:48;95236.47;;;5.87;53.99
40285;BME280;25997;50.214;19.354;2023-03-11T03:57:50;95244.31;;;5.75;54.84
40285;BME280;25997;50.214;19.354;2023-03-11T04:00:57;95220.03;;;5.42;56.04
40285;BME280;25997;50.214;19.354;2023-03-11T04:04:00;95237.38;;;5.31;56.17
40285;BME280;25997;50.214;19.354;2023-03-11T04:07:03;95227.88;;;5.39;56.18
40285;BME280;25997;50.214;19.354;2023-03-11T04:10:08;95227.88;;;5.57;55.33
40285;BME280;25997;50.214;19.354;2023-03-11T04:13:12;95234.78;;;5.27;55.85
40285;BME280;25997;50.214;19.354;2023-03-11T04:16:19;95239.94;;;5.07;56.20
40285;BME280;25997;50.214;19.354;2023-03-11T04:19:23;95249.47;;;4.99;56.34
40285;BME280;25997;50.214;19.354;2023-03-11T04:22:26;95226.97;;;5.04;56.35
40285;BME280;25997;50.214;19.354;2023-03-11T04:25:28;95223.47;;;4.88;57.25
40285;BME280;25997;50.214;19.354;2023-03-11T04:28:31;95236.44;;;4.79;57.65
40285;BME280;25997;50.214;19.354;2023-03-11T04:31:36;95224.25;;;4.68;58.54
40285;BME280;25997;50.214;19.354;2023-03-11T04:34:40;95226.81;;;4.65;59.02
40285;BME280;25997;50.214;19.354;2023-03-11T04:37:43;95227.78;;;4.82;58.19
40285;BME280;25997;50.214;19.354;2023-03-11T04:40:46;95230.38;;;4.82;58.17
40285;BME280;25997;50.214;19.354;2023-03-11T04:43:49;95237.28;;;4.74;58.74
40285;BME280;25997;50.214;19.354;2023-03-11T04:46:54;95233.69;;;4.49;60.07
40285;BME280;25997;50.214;19.354;2023-03-11T04:49:56;95231.13;;;4.58;59.41
40285;BME280;25997;50.214;19.354;2023-03-11T04:52:59;95224.19;;;4.48;61.00
40285;BME280;25997;50.214;19.354;2023-03-11T04:56:03;95242.34;;;4.47;60.85
40285;BME280;25997;50.214;19.354;2023-03-11T04:59:06;95235.34;;;4.32;61.05
40285;BME280;25997;50.214;19.354;2023-03-11T05:02:12;95237.09;;;4.35;61.25
40285;BME280;25997;50.214;19.354;2023-03-11T05:05:23;95236.25;;;4.40;61.06
40285;BME280;25997;50.214;19.354;2023-03-11T05:08:26;95258.59;;;4.08;62.16
40285;BME280;25997;50.214;19.354;2023-03-11T05:11:28;95247.44;;;4.19;61.70
40285;BME280;25997;50.214;19.354;2023-03-11T05:14:31;95240.47;;;4.18;61.62
40285;BME280;25997;50.214;19.354;2023-03-11T05:17:35;95251.69;;;4.11;61.86
40285;BME280;25997;50.214;19.354;2023-03-11T05:20:38;95262.00;;;3.99;62.38
40285;BME280;25997;50.214;19.354;2023-03-11T05:23:42;95260.13;;;3.79;63.12
40285;BME280;25997;50.214;19.354;2023-03-11T05:26:47;95266.16;;;3.73;62.94
40285;BME280;25997;50.214;19.354;2023-03-11T05:29:51;95260.97;;;3.75;62.34
40285;BME280;25997;50.214;19.354;2023-03-11T05:32:56;95260.97;;;3.75;62.08
40285;BME280;25997;50.214;19.354;2023-03-11T05:36:03;95257.41;;;3.61;62.57
40285;BME280;25997;50.214;19.354;2023-03-11T05:39:07;95290.22;;;3.56;62.64
40285;BME280;25997;50.214;19.354;2023-03-11T05:42:10;95273.69;;;3.44;62.63
40285;BME280;25997;50.214;19.354;2023-03-11T05:45:14;95266.66;;;3.30;62.50
40285;BME280;25997;50.214;19.354;2023-03-11T05:48:21;95298.25;;;2.93;63.40
40285;BME280;25997;50.214;19.354;2023-03-11T05:51:23;95293.00;;;2.87;63.58
40285;BME280;25997;50.214;19.354;2023-03-11T05:54:26;95308.16;;;2.55;64.38
40285;BME280;25997;50.214;19.354;2023-03-11T05:57:29;95301.63;;;2.86;63.16
40285;BME280;25997;50.214;19.354;2023-03-11T06:00:32;95295.25;;;2.61;63.87
40285;BME280;25997;50.214;19.354;2023-03-11T06:03:39;95347.44;;;2.25;64.35
40285;BME280;25997;50.214;19.354;2023-03-11T06:06:42;95330.19;;;2.27;63.84
40285;BME280;25997;50.214;19.354;2023-03-11T06:09:45;95374.28;;;1.76;64.85
40285;BME280;25997;50.214;19.354;2023-03-11T06:12:51;95380.72;;;1.50;64.96
40285;BME280;25997;50.214;19.354;2023-03-11T06:16:01;95350.97;;;1.75;64.79
40285;BME280;25997;50.214;19.354;2023-03-11T06:19:05;95361.56;;;1.38;65.70
40285;BME280;25997;50.214;19.354;2023-03-11T06:22:12;95387.88;;;1.18;65.84
40285;BME280;25997;50.214;19.354;2023-03-11T06:25:14;95421.19;;;1.05;66.23
40285;BME280;25997;50.214;19.354;2023-03-11T06:28:18;95384.22;;;1.06;65.96
40285;BME280;25997;50.214;19.354;2023-03-11T06:31:22;95391.84;;;1.00;66.46
40285;BME280;25997;50.214;19.354;2023-03-11T06:34:27;95439.88;;;0.92;66.19
40285;BME280;25997;50.214;19.354;2023-03-11T06:37:30;95394.28;;;0.92;66.57
40285;BME280;25997;50.214;19.354;2023-03-11T06:40:32;95405.50;;;0.94;66.54
40285;BME280;25997;50.214;19.354;2023-03-11T06:43:35;95423.25;;;0.79;67.13
40285;BME280;25997;50.214;19.354;2023-03-11T06:46:39;95421.28;;;0.68;68.33
40285;BME280;25997;50.214;19.354;2023-03-11T06:49:43;95436.06;;;0.75;68.27
40285;BME280;25997;50.214;19.354;2023-03-11T06:52:45;95403.41;;;0.75;67.62
40285;BME280;25997;50.214;19.354;2023-03-11T06:55:57;95432.00;;;0.84;67.57
40285;BME280;25997;50.214;19.354;2023-03-11T06:59:00;95470.22;;;0.62;67.35
40285;BME280;25997;50.214;19.354;2023-03-11T07:02:06;95447.75;;;0.58;67.66
40285;BME280;25997;50.214;19.354;2023-03-11T07:05:10;95458.34;;;0.71;67.28
40285;BME280;25997;50.214;19.354;2023-03-11T07:08:14;95477.34;;;0.73;67.44
40285;BME280;25997;50.214;19.354;2023-03-11T07:11:18;95468.94;;;0.82;67.25
40285;BME280;25997;50.214;19.354;2023-03-11T07:14:23;95470.63;;;0.80;67.36
40285;BME280;25997;50.214;19.354;2023-03-11T07:17:29;95468.06;;;0.81;67.44
40285;BME280;25997;50.214;19.354;2023-03-11T07:20:34;95482.41;;;1.09;66.61
40285;BME280;25997;50.214;19.354;2023-03-11T07:23:36;95492.56;;;1.00;66.74
40285;BME280;25997;50.214;19.354;2023-03-11T07:26:39;95479.81;;;1.07;66.73
40285;BME280;25997;50.214;19.354;2023-03-11T07:29:42;95497.34;;;1.22;66.43
40285;BME280;25997;50.214;19.354;2023-03-11T07:32:44;95499.94;;;1.23;66.06
40285;BME280;25997;50.214;19.354;2023-03-11T07:35:48;95480.78;;;1.12;66.07
40285;BME280;25997;50.214;19.354;2023-03-11T07:38:54;95492.53;;;0.98;66.50
40285;BME280;25997;50.214;19.354;2023-03-11T07:41:58;95501.81;;;0.90;66.58
40285;BME280;25997;50.214;19.354;2023-03-11T07:45:09;95505.63;;;1.07;66.23
40285;BME280;25997;50.214;19.354;2023-03-11T07:48:12;95503.94;;;1.08;66.17
40285;BME280;25997;50.214;19.354;2023-03-11T07:51:17;95489.00;;;0.95;66.40
40285;BME280;25997;50.214;19.354;2023-03-11T07:54:20;95501.47;;;1.14;65.86
40285;BME280;25997;50.214;19.354;2023-03-11T07:57:23;95503.06;;;1.07;66.01
40285;BME280;25997;50.214;19.354;2023-03-11T08:00:26;95510.47;;;0.91;66.29
40285;BME280;25997;50.214;19.354;2023-03-11T08:03:28;95502.06;;;1.01;66.36
40285;BME280;25997;50.214;19.354;2023-03-11T08:06:34;95491.63;;;0.98;66.18
40285;BME280;25997;50.214;19.354;2023-03-11T08:09:37;95509.81;;;1.02;65.91
40285;BME280;25997;50.214;19.354;2023-03-11T08:12:39;95549.09;;;0.88;65.59
40285;BME280;25997;50.214;19.354;2023-03-11T08:15:42;95511.41;;;0.96;66.12
40285;BME280;25997;50.214;19.354;2023-03-11T08:18:45;95517.44;;;0.96;65.94
40285;BME280;25997;50.214;19.354;2023-03-11T08:21:49;95519.78;;;0.84;66.37
40285;BME280;25997;50.214;19.354;2023-03-11T08:24:52;95530.06;;;0.83;66.45
40285;BME280;25997;50.214;19.354;2023-03-11T08:27:56;95563.69;;;0.86;66.67
40285;BME280;25997;50.214;19.354;2023-03-11T08:30:59;95532.41;;;0.74;66.67
40285;BME280;25997;50.214;19.354;2023-03-11T08:34:04;95539.00;;;0.98;65.95
40285;BME280;25997;50.214;19.354;2023-03-11T08:37:08;95535.41;;;0.92;66.37
40285;BME280;25997;50.214;19.354;2023-03-11T08:40:12;95527.53;;;0.86;66.40
40285;BME280;25997;50.214;19.354;2023-03-11T08:43:14;95536.66;;;1.09;65.48
40285;BME280;25997;50.214;19.354;2023-03-11T08:46:21;95535.81;;;1.08;65.30
40285;BME280;25997;50.214;19.354;2023-03-11T08:49:24;95554.09;;;1.17;65.02
40285;BME280;25997;50.214;19.354;2023-03-11T08:52:28;95558.47;;;1.21;64.70
40285;BME280;25997;50.214;19.354;2023-03-11T08:55:30;95562.44;;;1.06;64.97
40285;BME280;25997;50.214;19.354;2023-03-11T08:58:33;95565.16;;;1.12;65.14
40285;BME280;25997;50.214;19.354;2023-03-11T09:01:36;95570.22;;;1.09;64.95
40285;BME280;25997;50.214;19.354;2023-03-11T09:04:38;95566.63;;;1.02;65.25
40285;BME280;25997;50.214;19.354;2023-03-11T09:07:42;95593.66;;;0.79;65.47
40285;BME280;25997;50.214;19.354;2023-03-11T09:10:45;95582.28;;;1.08;64.78
40285;BME280;25997;50.214;19.354;2023-03-11T09:13:47;95584.22;;;1.17;64.89
40285;BME280;25997;50.214;19.354;2023-03-11T09:16:50;95601.97;;;1.02;64.95
40285;BME280;25997;50.214;19.354;2023-03-11T09:19:52;95605.13;;;1.29;64.61
40285;BME280;25997;50.214;19.354;2023-03-11T09:22:56;95616.13;;;1.20;64.23
40285;BME280;25997;50.214;19.354;2023-03-11T09:25:59;95625.34;;;1.09;63.95
40285;BME280;25997;50.214;19.354;2023-03-11T09:29:01;95629.34;;;0.95;65.16
40285;BME280;25997;50.214;19.354;2023-03-11T09:32:04;95641.28;;;0.90;65.34
40285;BME280;25997;50.214;19.354;2023-03-11T09:35:08;95627.88;;;1.06;65.14
40285;BME280;25997;50.214;19.354;2023-03-11T09:38:12;95622.53;;;0.99;64.85
40285;BME280;25997;50.214;19.354;2023-03-11T09:41:21;95645.53;;;0.54;65.44
40285;BME280;25997;50.214;19.354;2023-03-11T09:44:30;95679.19;;;0.27;66.64
40285;BME280;25997;50.214;19.354;2023-03-11T09:47:38;95657.19;;;0.40;66.87
40285;BME280;25997;50.214;19.354;2023-03-11T09:50:46;95657.84;;;0.33;67.04
40285;BME280;25997;50.214;19.354;2023-03-11T09:53:58;95664.03;;;0.39;66.79
40285;BME280;25997;50.214;19.354;2023-03-11T09:57:04;95676.06;;;0.39;67.00
40285;BME280;25997;50.214;19.354;2023-03-11T10:00:11;95683.50;;;-0.03;68.02
40285;BME280;25997;50.214;19.354;2023-03-11T10:03:25;95663.28;;;0.11;67.94
40285;BME280;25997;50.214;19.354;2023-03-11T10:06:29;95668.38;;;0.09;67.87
40285;BME280;25997;50.214;19.354;2023-03-11T10:09:36;95685.03;;;-0.09;68.44
40285;BME280;25997;50.214;19.354;2023-03-11T10:12:49;95694.22;;;0.11;67.96
40285;BME280;25997;50.214;19.354;2023-03-11T10:15:58;95703.75;;;0.13;67.81
40285;BME280;25997;50.214;19.354;2023-03-11T10:19:08;95700.44;;;0.19;67.47
40285;BME280;25997;50.214;19.354;2023-03-11T10:22:17;95693.53;;;0.18;67.52
40285;BME280;25997;50.214;19.354;2023-03-11T10:25:24;95705.13;;;0.02;67.98
40285;BME280;25997;50.214;19.354;2023-03-11T10:28:32;95699.91;;;-0.01;68.05
40285;BME280;25997;50.214;19.354;2023-03-11T10:31:39;95707.63;;;-0.01;68.28
40285;BME280;25997;50.214;19.354;2023-03-11T10:34:47;95712.06;;;0.05;68.24
40285;BME280;25997;50.214;19.354;2023-03-11T10:37:53;95719.91;;;0.08;68.03
40285;BME280;25997;50.214;19.354;2023-03-11T10:41:05;95746.28;;;-0.02;67.89
40285;BME280;25997;50.214;19.354;2023-03-11T10:44:11;95739.03;;;0.16;67.89
40285;BME280;25997;50.214;19.354;2023-03-11T10:47:17;95739.31;;;0.25;67.93
40285;BME280;25997;50.214;19.354;2023-03-11T10:50:20;95740.81;;;0.17;68.37
40285;BME280;25997;50.214;19.354;2023-03-11T10:53:22;95766.56;;;0.15;67.94
40285;BME280;25997;50.214;19.354;2023-03-11T10:56:29;95761.34;;;0.14;68.05
40285;BME280;25997;50.214;19.354;2023-03-11T10:59:33;95771.09;;;0.24;67.90
40285;BME280;25997;50.214;19.354;2023-03-11T11:02:38;95760.81;;;0.25;68.01
40285;BME280;25997;50.214;19.354;2023-03-11T11:05:42;95782.72;;;0.10;68.42
40285;BME280;25997;50.214;19.354;2023-03-11T11:08:46;95780.25;;;0.13;68.23
40285;BME280;25997;50.214;19.354;2023-03-11T11:12:03;95782.88;;;0.16;67.83
40285;BME280;25997;50.214;19.354;2023-03-11T11:15:20;95783.53;;;0.37;67.40
40285;BME280;25997;50.214;19.354;2023-03-11T11:18:25;95800.16;;;0.18;67.87
40285;BME280;25997;50.214;19.354;2023-03-11T11:21:31;95789.06;;;0.21;68.29
40285;BME280;25997;50.214;19.354;2023-03-11T11:24:34;95810.34;;;0.14;68.25
40285;BME280;25997;50.214;19.354;2023-03-11T11:27:52;95807.56;;;0.06;68.72
40285;BME280;25997;50.214;19.354;2023-03-11T11:30:57;95812.09;;;0.13;68.51
40285;BME280;25997;50.214;19.354;2023-03-11T11:34:00;95846.88;;;0.27;68.15
40285;BME280;25997;50.214;19.354;2023-03-11T11:37:04;95844.28;;;-0.02;68.13
40285;BME280;25997;50.214;19.354;2023-03-11T11:40:18;95850.09;;;0.20;67.63
40285;BME280;25997;50.214;19.354;2023-03-11T11:43:35;95879.53;;;0.27;67.61
40285;BME280;25997;50.214;19.354;2023-03-11T11:46:41;95859.56;;;0.20;67.31
40285;BME280;25997;50.214;19.354;2023-03-11T11:49:49;95875.28;;;0.29;67.29
40285;BME280;25997;50.214;19.354;2023-03-11T11:52:56;95912.16;;;0.25;66.93
40285;BME280;25997;50.214;19.354;2023-03-11T11:56:03;95890.44;;;0.18;67.27
40285;BME280;25997;50.214;19.354;2023-03-11T11:59:14;95913.81;;;-0.04;66.92
40285;BME280;25997;50.214;19.354;2023-03-11T12:02:31;95922.97;;;0.40;66.60
40285;BME280;25997;50.214;19.354;2023-03-11T12:05:44;95926.81;;;0.53;65.96
40285;BME280;25997;50.214;19.354;2023-03-11T12:09:00;95934.69;;;0.57;65.90
40285;BME280;25997;50.214;19.354;2023-03-11T12:12:15;95950.31;;;0.62;65.86
40285;BME280;25997;50.214;19.354;2023-03-11T12:15:25;95953.25;;;0.74;65.46
40285;BME280;25997;50.214;19.354;2023-03-11T12:18:35;95963.28;;;0.65;65.43
40285;BME280;25997;50.214;19.354;2023-03-11T12:21:53;95959.34;;;0.47;65.84
40285;BME280;25997;50.214;19.354;2023-03-11T12:25:07;95976.91;;;0.59;65.96
40285;BME280;25997;50.214;19.354;2023-03-11T12:28:19;95981.91;;;0.53;65.86
40285;BME280;25997;50.214;19.354;2023-03-11T12:31:27;95983.75;;;0.32;66.37
40285;BME280;25997;50.214;19.354;2023-03-11T12:34:33;96010.81;;;0.18;65.90
40285;BME280;25997;50.214;19.354;2023-03-11T12:37:36;96008.00;;;0.37;65.89
40285;BME280;25997;50.214;19.354;2023-03-11T12:41:00;96029.28;;;0.30;65.41
40285;BME280;25997;50.214;19.354;2023-03-11T12:44:19;96034.44;;;0.05;64.91
40285;BME280;25997;50.214;19.354;2023-03-11T12:47:24;96044.50;;;0.22;65.66
40285;BME280;25997;50.214;19.354;2023-03-11T12:50:41;96051.50;;;0.51;65.64
40285;BME280;25997;50.214;19.354;2023-03-11T12:53:46;96056.59;;;0.23;65.08
40285;BME280;25997;50.214;19.354;2023-03-11T12:56:52;96069.81;;;0.34;65.38
40285;BME280;25997;50.214;19.354;2023-03-11T13:00:11;96075.75;;;0.31;65.61
40285;BME280;25997;50.214;19.354;2023-03-11T13:03:46;96083.19;;;0.46;65.21
40285;BME280;25997;50.214;19.354;2023-03-11T13:10:40;96103.69;;;0.43;64.76
40285;BME280;25997;50.214;19.354;2023-03-11T13:13:43;96113.63;;;0.56;65.00
40285;BME280;25997;50.214;19.354;2023-03-11T13:16:46;96126.03;;;0.42;64.81
40285;BME280;25997;50.214;19.354;2023-03-11T13:19:52;96142.75;;;0.52;64.60
40285;BME280;25997;50.214;19.354;2023-03-11T13:26:39;96155.22;;;0.40;64.67
40285;BME280;25997;50.214;19.354;2023-03-11T13:29:52;96168.72;;;0.57;65.10
40285;BME280;25997;50.214;19.354;2023-03-11T13:33:14;96169.13;;;0.69;64.45
40285;BME280;25997;50.214;19.354;2023-03-11T13:36:35;96201.19;;;0.75;64.32
40285;BME280;25997;50.214;19.354;2023-03-11T13:39:47;96194.16;;;0.71;64.44
40285;BME280;25997;50.214;19.354;2023-03-11T13:43:07;96202.16;;;0.79;64.29
40285;BME280;25997;50.214;19.354;2023-03-11T13:46:35;96197.63;;;0.46;63.67
40285;BME280;25997;50.214;19.354;2023-03-11T13:49:59;96217.06;;;0.38;63.69
40285;BME280;25997;50.214;19.354;2023-03-11T13:53:29;96222.03;;;0.32;64.00
40285;BME280;25997;50.214;19.354;2023-03-11T13:56:42;96233.78;;;0.24;63.52
40285;BME280;25997;50.214;19.354;2023-03-11T13:59:50;96235.47;;;0.24;63.64
40285;BME280;25997;50.214;19.354;2023-03-11T14:02:55;96242.47;;;0.26;63.86
40285;BME280;25997;50.214;19.354;2023-03-11T14:06:01;96252.88;;;0.29;64.20
40285;BME280;25997;50.214;19.354;2023-03-11T14:09:18;96252.75;;;0.48;63.66
40285;BME280;25997;50.214;19.354;2023-03-11T14:12:21;96258.53;;;0.43;63.86
40285;BME280;25997;50.214;19.354;2023-03-11T14:15:24;96274.34;;;0.50;63.69
40285;BME280;25997;50.214;19.354;2023-03-11T14:18:38;96267.16;;;0.43;63.68
40285;BME280;25997;50.214;19.354;2023-03-11T14:21:57;96284.50;;;0.46;63.62
40285;BME280;25997;50.214;19.354;2023-03-11T14:25:21;96282.25;;;0.55;63.59
40285;BME280;25997;50.214;19.354;2023-03-11T14:28:45;96292.78;;;0.61;63.46
40285;BME280;25997;50.214;19.354;2023-03-11T14:35:23;96311.25;;;0.48;63.10
40285;BME280;25997;50.214;19.354;2023-03-11T14:38:28;96311.78;;;0.41;63.33
40285;BME280;25997;50.214;19.354;2023-03-11T14:41:33;96322.66;;;0.32;63.50
40285;BME280;25997;50.214;19.354;2023-03-11T14:44:40;96344.75;;;0.46;63.37
40285;BME280;25997;50.214;19.354;2023-03-11T14:47:47;96338.91;;;0.52;63.28
40285;BME280;25997;50.214;19.354;2023-03-11T14:50:52;96337.22;;;0.53;63.27
40285;BME280;25997;50.214;19.354;2023-03-11T14:54:04;96345.38;;;0.42;63.05
40285;BME280;25997;50.214;19.354;2023-03-11T14:57:17;96360.28;;;0.48;62.96
40285;BME280;25997;50.214;19.354;2023-03-11T15:00:23;96346.88;;;0.36;63.14
40285;BME280;25997;50.214;19.354;2023-03-11T15:03:27;96360.03;;;0.42;63.35
40285;BME280;25997;50.214;19.354;2023-03-11T15:06:33;96367.16;;;0.27;63.89
40285;BME280;25997;50.214;19.354;2023-03-11T15:09:38;96383.53;;;0.27;63.91
40285;BME280;25997;50.214;19.354;2023-03-11T15:12:43;96397.84;;;0.41;63.50
40285;BME280;25997;50.214;19.354;2023-03-11T15:15:54;96399.13;;;0.30;63.98
40285;BME280;25997;50.214;19.354;2023-03-11T15:18:59;96406.22;;;0.36;63.99
40285;BME280;25997;50.214;19.354;2023-03-11T15:22:15;96405.19;;;0.31;64.14
40285;BME280;25997;50.214;19.354;2023-03-11T15:25:22;96405.19;;;0.31;63.88
40285;BME280;25997;50.214;19.354;2023-03-11T15:28:28;96405.59;;;0.41;63.82
40285;BME280;25997;50.214;19.354;2023-03-11T15:31:34;96423.03;;;0.47;63.52
40285;BME280;25997;50.214;19.354;2023-03-11T15:34:36;96418.53;;;0.43;63.65
40285;BME280;25997;50.214;19.354;2023-03-11T15:37:40;96427.03;;;0.40;63.61
40285;BME280;25997;50.214;19.354;2023-03-11T15:40:50;96428.09;;;0.44;63.91
40285;BME280;25997;50.214;19.354;2023-03-11T15:43:55;96425.94;;;0.34;63.41
40285;BME280;25997;50.214;19.354;2023-03-11T15:47:02;96445.81;;;0.36;62.91
40285;BME280;25997;50.214;19.354;2023-03-11T15:50:20;96457.66;;;0.31;62.46
40285;BME280;25997;50.214;19.354;2023-03-11T15:53:25;96456.09;;;0.35;62.82
40285;BME280;25997;50.214;19.354;2023-03-11T15:56:28;96455.44;;;0.40;62.46
40285;BME280;25997;50.214;19.354;2023-03-11T15:59:35;96464.53;;;0.31;62.22
40285;BME280;25997;50.214;19.354;2023-03-11T16:02:38;96474.00;;;0.10;62.79
40285;BME280;25997;50.214;19.354;2023-03-11T16:05:41;96486.28;;;0.15;62.86
40285;BME280;25997;50.214;19.354;2023-03-11T16:08:43;96484.63;;;0.17;62.47
40285;BME280;25997;50.214;19.354;2023-03-11T16:11:46;96492.75;;;0.26;62.67
40285;BME280;25997;50.214;19.354;2023-03-11T16:14:50;96512.53;;;0.27;62.60
40285;BME280;25997;50.214;19.354;2023-03-11T16:17:53;96517.13;;;0.14;63.04
40285;BME280;25997;50.214;19.354;2023-03-11T16:20:56;96526.19;;;0.25;62.94
40285;BME280;25997;50.214;19.354;2023-03-11T16:23:59;96525.41;;;0.26;62.66
40285;BME280;25997;50.214;19.354;2023-03-11T16:27:01;96537.78;;;0.34;62.56
40285;BME280;25997;50.214;19.354;2023-03-11T16:30:06;96542.44;;;0.22;63.10
40285;BME280;25997;50.214;19.354;2023-03-11T16:33:10;96542.69;;;0.08;63.33
40285;BME280;25997;50.214;19.354;2023-03-11T16:36:12;96548.00;;;0.11;63.18
40285;BME280;25997;50.214;19.354;2023-03-11T16:39:15;96543.63;;;0.10;63.04